Time;durP1;ratioP1;P1;durP2;ratioP2;P2;SDS_P1;SDS_P2;PMS_P1;PMS_P2;Temp;Humidity;BMP_temperature;BMP_pressure;BME280_temperature;BME280_humidity;BME280_pressure;Samples;Min_cycle;Max_cycle;Signal;HPM_P1;HPM_P2
2024/01/07 00:02:00;;;;;;;7.60;5.28;;;6.80;71.60;;;1.74;100.00;94724.97;4976474;28;20104;-57
2024/01/07 00:04:26;;;;;;;7.32;5.32;;;6.80;71.70;;;1.74;100.00;94723.13;4978004;28;20026;-54
2024/01/07 00:06:51;;;;;;;7.20;4.80;;;6.80;71.80;;;1.74;100.00;94730.22;4971072;28;20038;-51
2024/01/07 00:09:17;;;;;;;7.10;5.20;;;6.80;71.80;;;1.69;100.00;94724.84;4974844;28;20037;-52
2024/01/07 00:11:43;;;;;;;7.20;5.22;;;6.70;71.70;;;1.70;100.00;94718.56;4970796;28;20018;-54
2024/01/07 00:14:09;;;;;;;7.10;5.13;;;6.70;71.70;;;1.69;100.00;94716.97;4979600;28;20029;-51
2024/01/07 00:16:35;;;;;;;8.50;5.22;;;6.70;71.80;;;1.62;100.00;94723.13;4978470;28;20022;-51
2024/01/07 00:19:01;;;;;;;6.93;4.88;;;6.70;71.80;;;1.62;100.00;94720.50;4980512;28;20029;-52
2024/01/07 00:21:27;;;;;;;7.45;5.28;;;6.70;71.80;;;1.64;100.00;94722.91;4980070;28;20029;-52
2024/01/07 00:23:53;;;;;;;6.63;5.32;;;6.70;71.80;;;1.60;100.00;94719.16;4977780;28;20393;-52
2024/01/07 00:26:19;;;;;;;7.25;5.00;;;6.60;71.80;;;1.60;100.00;94719.94;4974451;28;20029;-53
2024/01/07 00:28:45;;;;;;;6.90;4.90;;;6.60;71.90;;;1.62;100.00;94730.22;4980464;28;20112;-51
2024/01/07 00:31:13;;;;;;;6.35;4.78;;;6.60;71.80;;;1.60;100.00;94719.94;4975761;28;20117;-54
2024/01/07 00:33:39;;;;;;;7.90;5.18;;;6.60;71.90;;;1.63;100.00;94721.31;4981086;28;20025;-53
2024/01/07 00:36:05;;;;;;;7.80;5.38;;;6.60;71.90;;;1.57;100.00;94722.25;4979293;28;20069;-54
2024/01/07 00:38:31;;;;;;;6.90;5.25;;;6.60;72.00;;;1.55;100.00;94724.28;4978106;28;20026;-51
2024/01/07 00:40:57;;;;;;;7.28;5.25;;;6.60;72.00;;;1.52;100.00;94719.50;4975614;28;20018;-55
2024/01/07 00:43:23;;;;;;;6.72;4.82;;;6.60;72.00;;;1.53;100.00;94716.63;4975030;28;20105;-57
2024/01/07 00:45:48;;;;;;;7.30;5.18;;;6.60;72.00;;;1.50;100.00;94719.69;4974286;28;20018;-54
2024/01/07 00:48:15;;;;;;;6.43;4.95;;;6.60;72.00;;;1.49;100.00;94712.88;4975804;28;20030;-57
2024/01/07 00:50:41;;;;;;;8.48;5.43;;;6.50;72.50;;;1.46;100.00;94718.56;4975086;28;20508;-54
2024/01/07 00:53:07;;;;;;;8.35;5.50;;;6.60;72.00;;;1.47;100.00;94716.75;4971995;28;20057;-56
2024/01/07 00:55:35;;;;;;;9.25;6.07;;;6.50;71.90;;;1.45;100.00;94714.38;4981649;28;20124;-53
2024/01/07 00:58:02;;;;;;;10.68;5.78;;;6.50;72.00;;;1.43;100.00;94712.97;4976368;28;20377;-50
2024/01/07 01:00:28;;;;;;;6.55;5.03;;;6.50;72.00;;;1.45;100.00;94716.19;4974332;28;20167;-51
2024/01/07 01:02:55;;;;;;;9.27;5.55;;;6.50;72.00;;;1.42;100.00;94719.28;4978995;28;20021;-50
2024/01/07 01:05:21;;;;;;;9.70;5.63;;;6.40;72.00;;;1.43;100.00;94719.03;4971359;28;20055;-50
2024/01/07 01:07:46;;;;;;;7.32;5.03;;;6.40;72.10;;;1.46;100.00;94720.41;4976339;28;20053;-53
2024/01/07 01:10:14;;;;;;;8.20;5.57;;;6.40;72.10;;;1.46;100.00;94723.03;4972695;28;20033;-50
2024/01/07 01:12:40;;;;;;;6.72;5.43;;;6.40;72.20;;;1.46;100.00;94726.44;4973166;28;20025;-54
2024/01/07 01:15:07;;;;;;;8.10;5.43;;;6.40;72.20;;;1.49;100.00;94720.75;4976240;28;20019;-52
2024/01/07 01:17:32;;;;;;;8.07;5.75;;;6.50;72.30;;;1.52;100.00;94725.53;4978401;28;20109;-53
2024/01/07 01:19:58;;;;;;;7.90;5.75;;;6.50;72.40;;;1.53;100.00;94729.75;4978444;28;20164;-51
2024/01/07 01:22:24;;;;;;;7.35;5.40;;;6.50;72.40;;;1.55;100.00;94732.16;4982217;28;20098;-50
2024/01/07 01:24:51;;;;;;;7.00;5.47;;;6.50;72.40;;;1.56;100.00;94733.75;4973177;28;20065;-52
2024/01/07 01:27:16;;;;;;;6.75;4.82;;;6.50;72.40;;;1.54;100.00;94730.56;4972259;28;20112;-51
2024/01/07 01:29:42;;;;;;;8.65;5.10;;;6.50;72.30;;;1.53;100.00;94726.31;4980642;28;20032;-53
2024/01/07 01:32:08;;;;;;;6.65;5.00;;;6.50;72.30;;;1.44;100.00;94728.50;4976297;28;20029;-51
2024/01/07 01:34:34;;;;;;;9.07;5.82;;;6.50;73.00;;;1.45;100.00;94724.84;4980801;28;20030;-55
2024/01/07 01:37:00;;;;;;;7.03;5.00;;;6.50;72.30;;;1.42;100.00;94732.38;4980373;28;20080;-54
2024/01/07 01:39:26;;;;;;;6.60;4.90;;;6.50;72.30;;;1.43;100.00;94736.59;4974059;28;20037;-52
2024/01/07 01:41:53;;;;;;;6.95;5.18;;;6.50;72.30;;;1.42;100.00;94733.19;4970395;28;20030;-55
2024/01/07 01:44:19;;;;;;;6.57;4.85;;;6.50;72.30;;;1.42;100.00;94735.81;4972475;28;20033;-51
2024/01/07 01:46:46;;;;;;;9.52;5.68;;;6.50;72.30;;;1.42;100.00;94735.81;4970768;28;20026;-52
2024/01/07 01:49:13;;;;;;;6.18;4.90;;;6.50;72.30;;;1.45;100.00;94737.97;4973545;28;20409;-53
2024/01/07 01:51:39;;;;;;;7.55;5.07;;;6.50;72.30;;;1.47;100.00;94737.75;4977949;28;20022;-52
2024/01/07 01:54:06;;;;;;;17.02;5.28;;;6.50;72.40;;;1.44;100.00;94736.38;4974494;28;20046;-52
2024/01/07 01:56:33;;;;;;;6.53;5.03;;;6.50;72.40;;;1.45;100.00;94742.44;4971824;28;20114;-53
2024/01/07 01:59:00;;;;;;;8.45;5.45;;;6.50;72.40;;;1.45;100.00;94737.19;4976639;28;20026;-55
2024/01/07 02:01:26;;;;;;;7.40;5.40;;;6.40;72.30;;;1.48;100.00;94742.78;4973310;28;20057;-54
2024/01/07 02:03:53;;;;;;;6.57;5.05;;;6.50;72.40;;;1.46;100.00;94736.16;4978851;28;20164;-52
2024/01/07 02:06:21;;;;;;;9.43;5.95;;;6.40;72.30;;;1.46;100.00;94741.41;4973459;28;20018;-54
2024/01/07 02:08:48;;;;;;;6.80;4.95;;;6.50;72.40;;;1.44;100.00;94751.31;4972807;28;20034;-56
2024/01/07 02:11:21;;;;;;;8.20;5.80;;;6.50;72.40;;;1.45;100.00;94745.06;4969385;28;20313;-51
2024/01/07 02:13:47;;;;;;;10.45;5.95;;;6.50;72.40;;;1.44;100.00;94740.81;4977424;28;20088;-52
2024/01/07 02:16:14;;;;;;;7.90;5.93;;;6.50;72.30;;;1.41;100.00;94744.72;4976174;28;20053;-55
2024/01/07 02:18:45;;;;;;;7.30;5.32;;;6.40;72.30;;;1.39;100.00;94741.50;4972467;28;20030;-54
2024/01/07 02:21:13;;;;;;;8.60;6.00;;;6.40;72.30;;;1.39;100.00;94744.94;4978044;28;20095;-56
2024/01/07 02:23:39;;;;;;;7.28;5.50;;;6.40;72.30;;;1.37;100.00;94739.09;4971771;28;20393;-56
2024/01/07 02:26:06;;;;;;;9.27;5.55;;;6.40;72.30;;;1.37;100.00;94754.84;4975670;28;20034;-56
2024/01/07 02:28:33;;;;;;;7.82;5.65;;;6.40;72.30;;;1.34;100.00;94752.69;4976481;28;20030;-57
2024/01/07 02:31:00;;;;;;;6.82;5.25;;;6.40;72.30;;;1.32;100.00;94752.13;4976319;28;20029;-56
2024/01/07 02:33:26;;;;;;;8.43;5.93;;;6.40;72.30;;;1.35;100.00;94743.78;4971956;28;20041;-56
2024/01/07 02:35:52;;;;;;;10.48;5.65;;;6.40;72.30;;;1.39;100.00;94746.75;4970889;28;20046;-55
2024/01/07 02:38:17;;;;;;;7.57;5.30;;;6.40;72.30;;;1.36;100.00;94741.97;4971664;28;20504;-56
2024/01/07 02:40:43;;;;;;;9.82;5.60;;;6.40;72.30;;;1.36;100.00;94737.50;4971309;28;20084;-52
2024/01/07 02:43:09;;;;;;;8.13;6.13;;;6.40;72.30;;;1.32;100.00;94739.00;4975978;28;20034;-54
2024/01/07 02:45:35;;;;;;;7.00;5.03;;;6.40;72.30;;;1.32;100.00;94739.00;4975407;28;20097;-54
2024/01/07 02:48:01;;;;;;;7.95;5.82;;;6.40;72.20;;;1.27;100.00;94738.88;4975641;28;20022;-55
2024/01/07 02:50:27;;;;;;;9.25;5.88;;;6.40;72.30;;;1.23;100.00;94742.97;4971522;28;20057;-51
2024/01/07 02:52:53;;;;;;;8.98;6.18;;;6.30;72.10;;;1.25;100.00;94732.25;4971238;28;20045;-57
2024/01/07 02:55:18;;;;;;;10.13;6.28;;;6.30;72.10;;;1.27;100.00;94735.47;4970286;28;20076;-53
2024/01/07 02:57:44;;;;;;;8.35;5.95;;;6.30;72.20;;;1.29;100.00;94734.22;4973540;28;20435;-53
2024/01/07 03:00:10;;;;;;;9.07;6.47;;;6.30;72.20;;;1.29;100.00;94733.41;4974536;28;20026;-57
2024/01/07 03:02:36;;;;;;;10.43;5.80;;;6.30;72.30;;;1.22;100.00;94735.31;4975094;28;20497;-56
2024/01/07 03:05:03;;;;;;;8.38;5.90;;;6.30;72.30;;;1.26;100.00;94739.13;4975323;28;20064;-55
2024/01/07 03:07:28;;;;;;;9.25;6.32;;;6.30;72.30;;;1.29;100.00;94736.03;4978559;28;20104;-56
2024/01/07 03:09:54;;;;;;;10.20;6.38;;;6.30;72.30;;;1.27;100.00;94745.94;4974998;28;20429;-55
2024/01/07 03:12:20;;;;;;;9.73;6.80;;;6.30;72.30;;;1.26;100.00;94741.75;4974051;28;20033;-55
2024/01/07 03:14:46;;;;;;;11.18;6.47;;;6.30;72.40;;;1.24;100.00;94749.81;4974260;28;20021;-53
2024/01/07 03:17:12;;;;;;;10.07;6.78;;;6.30;72.30;;;1.20;100.00;94751.31;4973294;28;20109;-51
2024/01/07 03:19:38;;;;;;;9.52;6.80;;;6.30;72.30;;;1.18;100.00;94742.06;4975175;28;20021;-53
2024/01/07 03:22:07;;;;;;;9.95;6.80;;;6.30;72.30;;;1.22;100.00;94749.22;4974869;28;20032;-51
2024/01/07 03:24:33;;;;;;;10.05;6.60;;;6.30;72.30;;;1.24;100.00;94749.81;4973005;28;20030;-51
2024/01/07 03:26:59;;;;;;;9.77;6.47;;;6.30;72.40;;;1.25;100.00;94750.63;4974824;28;20073;-52
2024/01/07 03:29:25;;;;;;;10.70;6.78;;;6.20;72.30;;;1.23;100.00;94742.97;4973649;28;20529;-51
2024/01/07 03:31:52;;;;;;;9.73;6.57;;;6.20;72.30;;;1.23;100.00;94740.38;4978381;28;20038;-51
2024/01/07 03:34:19;;;;;;;11.40;6.55;;;6.20;72.30;;;1.19;100.00;94738.41;4974780;28;20065;-56
2024/01/07 03:36:45;;;;;;;10.10;6.90;;;6.20;72.40;;;1.18;100.00;94749.94;4973430;28;20089;-55
2024/01/07 03:39:11;;;;;;;9.93;6.45;;;6.20;72.30;;;1.09;100.00;94741.56;4974940;28;20022;-54
2024/01/07 03:41:37;;;;;;;9.98;6.63;;;6.20;72.30;;;1.15;100.00;94751.97;4973648;28;20022;-56
2024/01/07 03:44:03;;;;;;;10.98;6.93;;;6.20;72.30;;;1.17;100.00;94749.13;4978276;28;20129;-57
2024/01/07 03:46:29;;;;;;;9.82;6.55;;;6.20;72.40;;;1.19;100.00;94741.81;4974241;28;20030;-55
2024/01/07 03:48:55;;;;;;;9.50;6.75;;;6.20;72.40;;;1.18;100.00;94748.09;4978170;28;20048;-54
2024/01/07 03:51:21;;;;;;;8.10;5.70;;;6.20;72.40;;;1.20;100.00;94747.88;4974564;28;20026;-55
2024/01/07 03:53:47;;;;;;;11.90;6.43;;;6.20;72.40;;;1.15;100.00;94754.59;4972888;28;20061;-56
2024/01/07 03:56:12;;;;;;;10.18;6.43;;;6.20;72.30;;;1.17;100.00;94753.59;4974093;28;20091;-54
2024/01/07 03:58:38;;;;;;;9.75;6.25;;;6.20;72.30;;;1.19;100.00;94752.31;4974292;28;20930;-53
2024/01/07 04:01:04;;;;;;;9.13;6.05;;;6.20;72.30;;;1.17;100.00;94748.34;4971615;28;20025;-53
2024/01/07 04:03:30;;;;;;;11.40;6.25;;;6.20;72.30;;;1.12;100.00;94744.53;4974242;28;20038;-57
2024/01/07 04:05:56;;;;;;;9.10;5.70;;;6.20;72.30;;;1.14;100.00;94752.22;4971325;28;20100;-51
2024/01/07 04:08:22;;;;;;;9.18;5.93;;;6.20;72.30;;;1.12;100.00;94749.78;4973149;28;20080;-52
2024/01/07 04:10:49;;;;;;;10.30;6.43;;;6.20;72.30;;;1.06;100.00;94755.16;4974302;28;20429;-58
2024/01/07 04:13:14;;;;;;;9.40;6.45;;;6.20;72.30;;;1.04;100.00;94752.75;4977017;28;20022;-53
2024/01/07 04:15:40;;;;;;;11.00;6.40;;;6.20;72.20;;;1.05;100.00;94754.34;4973855;28;20018;-51
2024/01/07 04:18:06;;;;;;;10.57;6.50;;;6.10;72.90;;;1.07;100.00;94754.13;4972991;28;20028;-52
2024/01/07 04:20:32;;;;;;;9.13;5.85;;;6.10;72.20;;;1.06;100.00;94761.19;4985987;28;20538;-56
2024/01/07 04:22:58;;;;;;;8.40;5.95;;;6.10;72.20;;;1.04;100.00;94760.63;4977433;28;20042;-55
2024/01/07 04:25:25;;;;;;;11.43;6.32;;;6.10;72.30;;;1.05;100.00;94758.81;4972907;28;20050;-53
2024/01/07 04:27:50;;;;;;;9.63;5.97;;;6.10;72.20;;;1.05;100.00;94764.84;4973687;28;20030;-52
2024/01/07 04:30:16;;;;;;;9.50;5.65;;;6.10;72.20;;;1.06;100.00;94763.81;4972663;28;20026;-57
2024/01/07 04:32:42;;;;;;;11.70;5.72;;;6.10;72.20;;;1.05;100.00;94764.84;4974461;28;20046;-52
2024/01/07 04:35:08;;;;;;;10.02;5.85;;;6.10;72.20;;;1.06;100.00;94765.63;4988281;28;20037;-57
2024/01/07 04:37:37;;;;;;;8.85;5.50;;;6.10;72.20;;;1.00;100.00;94761.28;4979581;28;20026;-58
2024/01/07 04:40:03;;;;;;;10.00;6.28;;;6.10;72.20;;;1.01;100.00;94758.47;4981475;28;20131;-55
2024/01/07 04:42:29;;;;;;;8.45;5.55;;;6.10;72.20;;;1.02;100.00;94759.25;4974520;28;20092;-57
2024/01/07 04:44:55;;;;;;;11.60;6.25;;;6.10;72.30;;;1.03;100.00;94766.88;4982649;28;20034;-56
2024/01/07 04:47:36;;;;;;;8.73;5.50;;;6.10;72.20;;;1.05;100.00;94769.28;4976894;28;20124;-58
2024/01/07 04:50:04;;;;;;;9.05;6.20;;;6.10;72.20;;;1.00;100.00;94767.31;4970366;28;20077;-56
2024/01/07 04:52:30;;;;;;;9.88;5.82;;;6.10;72.30;;;1.02;100.00;94769.75;4972987;28;20022;-56
2024/01/07 04:54:57;;;;;;;10.52;6.53;;;6.10;72.20;;;0.99;100.00;94773.59;4981863;28;20026;-56
2024/01/07 04:57:23;;;;;;;10.77;6.28;;;6.10;72.30;;;0.98;100.00;94771.22;4980134;28;20026;-55
2024/01/07 04:59:51;;;;;;;15.07;6.57;;;6.10;72.20;;;0.97;100.00;94780.09;4979787;28;20060;-52
2024/01/07 05:02:17;;;;;;;10.07;6.70;;;6.10;72.20;;;0.96;100.00;94774.06;4972840;28;20250;-52
2024/01/07 05:04:43;;;;;;;10.05;6.35;;;6.10;72.10;;;0.96;100.00;94783.75;4973200;28;20029;-52
2024/01/07 05:07:09;;;;;;;11.00;6.82;;;6.10;72.10;;;0.96;100.00;94775.88;4979079;28;20021;-54
2024/01/07 05:09:35;;;;;;;10.63;6.63;;;6.10;72.10;;;0.96;100.00;94779.31;4972696;28;20026;-56
2024/01/07 05:12:01;;;;;;;10.77;6.70;;;6.10;72.10;;;0.95;100.00;94785.56;4975333;28;20029;-57
2024/01/07 05:14:28;;;;;;;10.68;6.93;;;6.00;72.00;;;0.95;100.00;94782.94;4972761;28;20022;-56
2024/01/07 05:16:55;;;;;;;11.80;7.00;;;6.00;72.10;;;0.93;100.00;94783.16;4972994;28;20033;-54
2024/01/07 05:19:21;;;;;;;10.95;6.80;;;6.00;72.00;;;0.93;100.00;94785.00;4971282;28;20034;-52
2024/01/07 05:21:46;;;;;;;10.23;6.25;;;6.00;72.10;;;0.89;100.00;94781.22;4971807;28;20084;-53
2024/01/07 05:24:12;;;;;;;11.48;7.00;;;6.00;72.10;;;0.86;100.00;94779.84;4977554;28;20514;-55
2024/01/07 05:26:42;;;;;;;11.48;7.20;;;6.00;72.10;;;0.86;100.00;94794.78;4976015;28;20034;-55
2024/01/07 05:29:07;;;;;;;13.23;7.38;;;6.00;72.10;;;0.85;100.00;94793.19;4972411;28;20386;-54
2024/01/07 05:31:33;;;;;;;22.02;7.20;;;6.00;72.00;;;0.85;100.00;94790.56;4994963;28;20041;-53
2024/01/07 05:33:59;;;;;;;16.92;7.65;;;6.00;72.00;;;0.80;100.00;94791.22;4978765;28;20125;-52
2024/01/07 05:36:25;;;;;;;13.63;7.55;;;6.00;72.00;;;0.81;100.00;94787.56;4971211;28;20077;-54
2024/01/07 05:38:51;;;;;;;12.43;7.47;;;6.00;71.90;;;0.81;100.00;94800.69;4972244;28;20026;-52
2024/01/07 05:41:17;;;;;;;12.98;7.57;;;6.00;72.00;;;0.82;100.00;94794.44;4973850;28;20457;-56
2024/01/07 05:43:43;;;;;;;11.07;6.97;;;6.00;72.00;;;0.84;100.00;94807.31;4976880;28;20030;-52
2024/01/07 05:46:10;;;;;;;15.13;7.93;;;6.00;72.00;;;0.83;100.00;94806.50;4972009;28;20021;-53
2024/01/07 05:48:49;;;;;;;12.38;7.00;;;6.00;72.00;;;0.83;100.00;94803.88;4971324;28;20054;-52
2024/01/07 05:51:16;;;;;;;13.55;7.00;;;6.00;72.00;;;0.84;100.00;94810.72;4972113;28;20030;-53
2024/01/07 05:53:45;;;;;;;12.50;7.35;;;6.00;72.10;;;0.82;100.00;94812.78;4971378;28;20096;-54
2024/01/07 05:56:11;;;;;;;13.32;7.10;;;6.00;72.10;;;0.79;100.00;94807.19;4972169;28;20025;-52
2024/01/07 05:58:37;;;;;;;13.38;7.68;;;6.00;72.10;;;0.79;100.00;94802.75;4972231;28;20761;-53
2024/01/07 06:01:03;;;;;;;14.15;7.57;;;5.90;72.00;;;0.82;100.00;94807.53;4970928;28;20489;-53
2024/01/07 06:03:29;;;;;;;11.70;6.70;;;6.00;72.10;;;0.82;100.00;94812.78;4972004;28;20034;-57
2024/01/07 06:05:55;;;;;;;12.50;7.32;;;6.00;72.00;;;0.80;100.00;94811.41;4970905;28;20022;-56
2024/01/07 06:08:21;;;;;;;16.40;7.43;;;6.00;72.00;;;0.80;100.00;94808.78;4971666;28;20030;-54
2024/01/07 06:10:47;;;;;;;11.18;6.60;;;5.90;72.00;;;0.79;100.00;94810.59;4972241;28;20030;-53
2024/01/07 06:13:12;;;;;;;12.38;7.50;;;5.90;71.90;;;0.77;100.00;94814.47;4970795;28;20030;-52
2024/01/07 06:15:38;;;;;;;13.13;6.93;;;5.90;71.90;;;0.75;100.00;94812.06;4971741;28;20026;-52
2024/01/07 06:18:04;;;;;;;12.13;6.68;;;5.90;71.90;;;0.75;100.00;94821.75;4970735;28;20030;-52
2024/01/07 06:20:30;;;;;;;57.83;8.52;;;5.90;71.90;;;0.73;100.00;94813.31;4971796;28;20032;-53
2024/01/07 06:22:56;;;;;;;11.32;7.00;;;5.90;71.90;;;0.69;100.00;94821.63;4972064;28;20018;-52
2024/01/07 06:25:22;;;;;;;21.98;8.60;;;5.90;71.90;;;0.66;100.00;94824.69;4970729;28;20319;-52
2024/01/07 06:27:48;;;;;;;13.13;6.95;;;5.90;71.90;;;0.64;100.00;94820.69;4971569;28;20037;-54
2024/01/07 06:30:15;;;;;;;12.13;6.50;;;5.80;71.80;;;0.64;100.00;94826.72;4975454;28;20025;-52
2024/01/07 06:32:41;;;;;;;11.02;6.68;;;5.80;71.80;;;0.64;100.00;94824.09;4971136;28;20136;-52
2024/01/07 06:35:07;;;;;;;12.18;6.72;;;5.80;71.80;;;0.65;100.00;94825.69;4971142;28;20042;-51
2024/01/07 06:37:34;;;;;;;13.02;6.75;;;5.80;71.80;;;0.63;100.00;94830.38;4970611;28;20054;-56
2024/01/07 06:40:00;;;;;;;12.07;6.90;;;5.80;71.90;;;0.58;100.00;94835.47;4970364;28;20034;-52
2024/01/07 06:42:26;;;;;;;11.85;6.57;;;5.80;71.80;;;0.56;100.00;94837.50;4967631;28;20026;-52
2024/01/07 06:44:52;;;;;;;20.02;6.53;;;5.80;71.90;;;0.57;100.00;94844.34;4980052;28;20033;-53
2024/01/07 06:47:18;;;;;;;12.65;6.38;;;5.80;71.90;;;0.56;100.00;94837.50;4974999;28;20369;-52
2024/01/07 06:49:45;;;;;;;11.60;6.35;;;5.70;71.80;;;0.51;100.00;94837.38;4980196;28;20034;-56
2024/01/07 06:52:10;;;;;;;12.85;6.93;;;5.70;71.80;;;0.49;100.00;94849.88;4977723;28;20029;-56
2024/01/07 06:54:37;;;;;;;10.68;5.85;;;5.70;71.90;;;0.50;100.00;94840.19;4969980;28;20030;-52
2024/01/07 06:57:03;;;;;;;12.45;7.03;;;5.70;71.90;;;0.48;100.00;94843.03;4971264;28;20033;-53
2024/01/07 06:59:29;;;;;;;11.65;6.57;;;5.70;72.20;;;0.48;100.00;94845.66;4970290;28;20394;-53
2024/01/07 07:01:56;;;;;;;13.27;7.53;;;5.70;72.00;;;0.46;100.00;94848.50;4971358;28;20084;-53
2024/01/07 07:04:22;;;;;;;12.15;6.95;;;5.70;72.70;;;0.44;100.00;94850.56;4971181;28;20045;-56
2024/01/07 07:06:48;;;;;;;13.75;6.80;;;5.70;72.70;;;0.44;100.00;94844.50;4975941;28;20022;-57
2024/01/07 07:09:15;;;;;;;14.13;7.45;;;5.70;71.90;;;0.48;100.00;94852.72;4972710;28;20092;-57
2024/01/07 07:11:41;;;;;;;14.25;7.25;;;5.70;72.00;;;0.49;100.00;94846.47;4970261;28;20079;-55
2024/01/07 07:14:07;;;;;;;13.23;7.72;;;5.70;72.00;;;0.49;100.00;94852.50;4971040;28;20108;-57
2024/01/07 07:16:33;;;;;;;13.77;7.40;;;5.70;72.00;;;0.50;100.00;94851.47;4971130;28;20030;-56
2024/01/07 07:18:59;;;;;;;17.60;7.18;;;5.60;71.90;;;0.49;100.00;94854.31;4970113;28;20030;-54
2024/01/07 07:21:26;;;;;;;15.25;7.90;;;5.70;72.00;;;0.50;100.00;94853.28;4971032;28;20033;-56
2024/01/07 07:23:52;;;;;;;19.83;8.52;;;5.70;72.00;;;0.47;100.00;94859.81;4970312;28;20026;-53
2024/01/07 07:26:18;;;;;;;15.95;8.48;;;5.70;72.00;;;0.48;100.00;94856.16;4970896;28;20076;-52
2024/01/07 07:28:44;;;;;;;17.27;8.65;;;5.70;72.10;;;0.47;100.00;94865.03;4970924;28;20031;-56
2024/01/07 07:31:12;;;;;;;19.50;8.68;;;5.70;72.10;;;0.48;100.00;94861.38;4975341;28;20041;-53
2024/01/07 07:33:40;;;;;;;17.60;8.73;;;5.70;72.10;;;0.48;100.00;94861.38;4979619;28;20054;-54
2024/01/07 07:36:07;;;;;;;18.08;8.25;;;5.70;72.10;;;0.45;100.00;94865.25;4969646;28;20050;-54
2024/01/07 07:38:33;;;;;;;16.88;8.27;;;5.70;72.10;;;0.43;100.00;94863.84;4974832;28;20049;-53
2024/01/07 07:41:00;;;;;;;17.48;8.63;;;5.60;72.10;;;0.49;100.00;94862.97;4972412;28;20022;-52
2024/01/07 07:43:26;;;;;;;16.55;8.45;;;5.60;72.10;;;0.51;100.00;94870.66;4976923;28;20037;-56
2024/01/07 07:45:52;;;;;;;28.98;9.13;;;5.60;72.10;;;0.50;100.00;94876.88;4972228;28;20080;-51
2024/01/07 07:48:19;;;;;;;18.08;8.80;;;5.70;72.20;;;0.50;100.00;94876.88;4972718;28;20030;-54
2024/01/07 07:50:46;;;;;;;19.80;9.15;;;5.60;72.20;;;0.49;100.00;94873.47;4983423;28;20034;-55
2024/01/07 07:53:11;;;;;;;18.10;9.00;;;5.60;72.90;;;0.52;100.00;94878.28;4976069;28;20022;-52
2024/01/07 07:55:37;;;;;;;17.60;9.05;;;5.60;72.20;;;0.55;100.00;94883.06;4973377;28;20044;-58
2024/01/07 07:58:03;;;;;;;17.50;9.23;;;5.70;72.30;;;0.52;100.00;94880.09;4974588;28;20060;-56
2024/01/07 08:00:29;;;;;;;17.40;8.80;;;5.70;72.30;;;0.51;100.00;94886.38;4973140;28;20113;-52
2024/01/07 08:02:55;;;;;;;17.48;9.13;;;5.70;72.30;;;0.52;100.00;94880.09;4974361;28;20545;-53
2024/01/07 08:05:21;;;;;;;19.00;9.00;;;5.70;72.20;;;0.55;100.00;94884.91;4973054;28;20037;-53
2024/01/07 08:07:46;;;;;;;19.05;8.95;;;5.70;72.20;;;0.56;100.00;94881.25;4975891;28;20026;-52
2024/01/07 08:10:12;;;;;;;20.00;9.07;;;5.80;72.30;;;0.56;100.00;94889.13;4974684;28;20060;-51
2024/01/07 08:12:38;;;;;;;18.33;9.70;;;5.80;72.20;;;0.59;100.00;94883.44;4974758;28;20033;-53
2024/01/07 08:15:06;;;;;;;17.20;8.82;;;5.80;72.20;;;0.56;100.00;94895.16;4974209;28;20504;-53
2024/01/07 08:17:32;;;;;;;61.60;10.55;;;5.80;72.30;;;0.61;100.00;94889.28;4974422;28;20022;-51
2024/01/07 08:19:57;;;;;;;38.63;10.20;;;5.80;72.30;;;0.63;100.00;94895.91;4972960;28;20041;-53
2024/01/07 08:22:23;;;;;;;17.05;8.65;;;5.90;72.30;;;0.61;100.00;94887.44;4975200;28;20113;-52
2024/01/07 08:24:50;;;;;;;19.48;8.93;;;5.90;72.30;;;0.64;100.00;94897.50;4970170;28;20025;-54
2024/01/07 08:27:16;;;;;;;26.48;9.25;;;5.90;73.00;;;0.68;100.00;94898.66;4975870;28;20033;-51
2024/01/07 08:29:45;;;;;;;16.73;8.48;;;5.90;72.30;;;0.70;100.00;94908.94;4972539;28;20029;-52
2024/01/07 08:32:12;;;;;;;15.73;8.32;;;5.90;72.20;;;0.76;100.00;94908.06;4974728;28;20105;-51
2024/01/07 08:34:39;;;;;;;19.52;9.35;;;6.00;72.30;;;0.80;100.00;94895.31;4975061;28;20026;-54
2024/01/07 08:37:07;;;;;;;24.38;8.85;;;6.00;72.30;;;0.81;100.00;94902.13;4993260;23;20057;-51
2024/01/07 08:39:33;;;;;;;18.92;9.55;;;6.10;72.30;;;0.80;100.00;94901.34;4965372;28;20030;-53
2024/01/07 08:41:59;;;;;;;16.77;8.73;;;6.10;72.20;;;0.90;100.00;94899.00;4970356;28;20022;-51
2024/01/07 08:44:25;;;;;;;22.20;10.35;;;6.20;72.20;;;0.95;100.00;94906.22;4972498;28;20789;-51
2024/01/07 08:46:51;;;;;;;19.23;9.38;;;6.30;72.30;;;0.97;100.00;94909.41;4953274;28;20054;-50
2024/01/07 08:49:16;;;;;;;26.65;9.30;;;6.30;72.30;;;1.04;100.00;94906.72;4942509;28;20039;-49
2024/01/07 08:51:43;;;;;;;19.20;10.20;;;6.40;72.20;;;1.08;100.00;94907.88;4944989;28;20023;-49
2024/01/07 08:54:08;;;;;;;22.58;9.77;;;6.50;72.30;;;1.11;100.00;94913.47;4944921;28;20386;-52
2024/01/07 08:56:34;;;;;;;27.63;10.48;;;6.50;72.10;;;1.18;100.00;94912.59;4949291;28;20030;-52
2024/01/07 08:59:00;;;;;;;22.02;10.02;;;6.60;72.10;;;1.27;100.00;94922.53;4947807;28;20034;-52
2024/01/07 09:01:26;;;;;;;21.20;9.60;;;6.70;72.20;;;1.31;100.00;94928.16;4946767;28;20121;-49
2024/01/07 09:03:52;;;;;;;20.40;9.93;;;6.80;72.10;;;1.34;100.00;94919.81;4943361;28;20030;-52
2024/01/07 09:06:18;;;;;;;16.83;9.88;;;6.80;72.00;;;1.39;100.00;94927.84;4939348;28;20054;-52
2024/01/07 09:08:44;;;;;;;18.40;9.23;;;6.90;71.90;;;1.45;100.00;94924.31;4944118;28;20019;-49
2024/01/07 09:11:12;;;;;;;29.00;9.20;;;6.90;71.90;;;1.42;100.00;94930.03;4940700;28;20046;-53
2024/01/07 09:13:38;;;;;;;31.65;15.82;;;6.90;71.80;;;1.47;100.00;94929.34;4950709;28;20045;-51
2024/01/07 09:16:05;;;;;;;26.88;11.77;;;7.00;71.80;;;1.53;100.00;94931.06;4949802;28;20022;-50
2024/01/07 09:18:31;;;;;;;14.05;8.32;;;7.00;71.70;;;1.57;100.00;94930.41;4943670;28;20106;-51
2024/01/07 09:20:57;;;;;;;17.10;9.05;;;7.10;71.70;;;1.58;100.00;94942.50;4944165;28;20556;-49
2024/01/07 09:23:23;;;;;;;19.80;8.60;;;7.10;71.70;;;1.59;100.00;94933.59;4936353;28;20528;-49
2024/01/07 09:25:49;;;;;;;13.85;8.50;;;7.10;71.60;;;1.63;100.00;94939.22;4940829;28;20030;-51
2024/01/07 09:28:15;;;;;;;13.25;7.97;;;7.10;71.50;;;1.62;100.00;94941.03;4940109;28;20027;-51
2024/01/07 09:30:41;;;;;;;14.70;9.00;;;7.20;71.50;;;1.65;100.00;94939.78;4944304;28;20035;-50
2024/01/07 09:33:07;;;;;;;14.02;7.90;;;7.20;71.50;;;1.73;100.00;94946.56;4935308;28;20069;-52
2024/01/07 09:35:33;;;;;;;12.65;8.20;;;7.30;71.50;;;1.75;100.00;94947.91;4943807;28;20162;-52
2024/01/07 09:37:58;;;;;;;12.52;8.05;;;7.30;71.40;;;1.77;100.00;94947.72;4942998;28;20390;-51
2024/01/07 09:40:25;;;;;;;14.02;8.00;;;7.30;71.40;;;1.77;100.00;94948.50;4947744;28;20027;-53
2024/01/07 09:42:50;;;;;;;12.02;7.85;;;7.30;71.40;;;1.80;100.00;94940.19;4943701;28;20079;-53
2024/01/07 09:45:19;;;;;;;12.48;7.70;;;7.40;71.40;;;1.87;100.00;94952.41;4949050;28;20073;-51
2024/01/07 09:47:46;;;;;;;11.73;7.40;;;7.40;72.20;;;1.91;100.00;94943.03;4943228;28;20054;-57
2024/01/07 09:50:13;;;;;;;12.10;7.25;;;7.50;71.40;;;1.90;100.00;94951.97;4945548;28;20409;-54
2024/01/07 09:52:44;;;;;;;10.25;6.88;;;7.60;71.40;;;1.89;100.00;94938.03;4947515;28;20027;-50
2024/01/07 09:55:30;;;;;;;10.68;7.35;;;7.60;71.20;;;2.07;100.00;94945.84;4945877;28;20114;-55
2024/01/07 09:57:56;;;;;;;10.30;6.97;;;7.70;71.30;;;2.07;100.00;94945.03;4949223;28;20046;-52
2024/01/07 10:00:22;;;;;;;9.50;7.05;;;7.70;71.20;;;2.19;100.00;94942.41;4938595;28;20061;-55
2024/01/07 10:02:48;;;;;;;10.07;6.75;;;7.90;71.20;;;2.27;100.00;94948.13;4949402;28;20026;-51
2024/01/07 10:05:14;;;;;;;8.30;6.30;;;7.90;71.00;;;2.33;100.00;94943.78;4941838;28;20125;-54
2024/01/07 10:07:39;;;;;;;9.43;6.32;;;8.00;70.90;;;2.35;100.00;94946.19;4944087;28;20019;-51
2024/01/07 10:10:18;;;;;;;14.10;6.20;;;8.10;70.90;;;2.40;100.00;94944.47;4945919;28;20094;-52
2024/01/07 10:12:46;;;;;;;8.23;5.97;;;8.20;70.70;;;2.50;100.00;94949.94;4944494;28;20053;-50
2024/01/07 10:15:13;;;;;;;12.82;6.78;;;8.20;70.60;;;2.48;100.00;94943.34;4946673;28;20046;-51
2024/01/07 10:17:45;;;;;;;15.15;6.68;;;8.30;70.60;;;2.48;100.00;94949.41;4923710;28;20724;-50
2024/01/07 10:20:12;;;;;;;7.00;5.40;;;8.30;70.40;;;2.50;100.00;94954.41;4945230;28;20109;-50